Time;durP1;ratioP1;P1;durP2;ratioP2;P2;SDS_P1;SDS_P2;PMS_P1;PMS_P2;Temp;Humidity;BMP_temperature;BMP_pressure;BME280_temperature;BME280_humidity;BME280_pressure;Samples;Min_cycle;Max_cycle;Signal;HPM_P1;HPM_P2
2020/12/25 00:01:52;;;;;;;1.73;0.70;;;;;;;;;;5013502;28;20565;-73
2020/12/25 00:04:57;;;;;;;1.00;0.83;;;;;;;;;;5028611;28;20197;-73
2020/12/25 00:08:01;;;;;;;2.50;0.80;;;;;;;;;;5033903;28;20176;-74
2020/12/25 00:11:05;;;;;;;1.00;0.90;;;;;;;;;;4999259;28;20213;-74
2020/12/25 00:14:09;;;;;;;0.63;0.60;;;;;;;;;;5025535;28;20189;-74
2020/12/25 00:17:17;;;;;;;0.80;0.70;;;;;;;;;;5017201;22;20200;31
2020/12/25 00:20:21;;;;;;;1.00;0.60;;;;;;;;;;4993095;28;20667;-73
2020/12/25 00:23:27;;;;;;;1.70;0.73;;;;;;;;;;4974673;28;20199;-73
2020/12/25 00:26:32;;;;;;;1.00;0.80;;;;;;;;;;4975522;28;20187;-73
2020/12/25 00:29:37;;;;;;;1.03;0.73;;;;;;;;;;4963060;28;20186;-73
2020/12/25 00:32:41;;;;;;;1.10;0.90;;;;;;;;;;4974681;28;20248;-73
2020/12/25 00:35:45;;;;;;;0.87;0.67;;;;;;;;;;4944317;29;20183;-73
2020/12/25 00:38:49;;;;;;;0.80;0.80;;;;;;;;;;4954699;29;20207;-73
2020/12/25 00:41:54;;;;;;;2.40;0.80;;;;;;;;;;4954706;29;20215;-73
2020/12/25 00:44:58;;;;;;;4.33;3.20;;;;;;;;;;4978922;28;20190;-73
2020/12/25 00:48:03;;;;;;;0.90;0.90;;;;;;;;;;4962961;28;20175;-73
2020/12/25 00:51:18;;;;;;;1.00;0.90;;;;;;;;;;4962816;28;20218;-73
2020/12/25 00:54:24;;;;;;;0.80;0.80;;;;;;;;;;4962539;28;20195;-73
2020/12/25 00:57:41;;;;;;;1.30;0.80;;;;;;;;;;4970811;28;20203;-73
2020/12/25 01:00:50;;;;;;;1.20;0.87;;;;;;;;;;4963192;28;20638;-73
2020/12/25 01:03:55;;;;;;;1.30;0.90;;;;;;;;;;4980605;28;20194;-73
2020/12/25 01:06:59;;;;;;;1.37;0.70;;;;;;;;;;4969073;28;20182;-73
2020/12/25 01:10:03;;;;;;;1.30;0.90;;;;;;;;;;4980374;28;20187;-73
2020/12/25 01:13:07;;;;;;;1.13;0.77;;;;;;;;;;4980729;28;20194;-73
2020/12/25 01:16:15;;;;;;;1.10;1.00;;;;;;;;;;4949477;29;20179;-73
2020/12/25 01:19:19;;;;;;;1.20;0.90;;;;;;;;;;4979633;28;20218;-73
2020/12/25 01:22:24;;;;;;;2.27;0.90;;;;;;;;;;4980807;28;20218;-73
2020/12/25 01:25:28;;;;;;;1.20;1.10;;;;;;;;;;4961149;29;20180;-73
2020/12/25 01:28:33;;;;;;;1.07;0.93;;;;;;;;;;4966845;28;20182;-73
2020/12/25 01:31:37;;;;;;;1.20;1.10;;;;;;;;;;4980528;28;20574;-73
2020/12/25 01:34:42;;;;;;;3.10;1.40;;;;;;;;;;4980193;28;20202;-73
2020/12/25 01:37:46;;;;;;;1.50;1.40;;;;;;;;;;4980302;28;20190;-73
2020/12/25 01:40:51;;;;;;;1.17;1.07;;;;;;;;;;4980398;28;20222;-73
2020/12/25 01:43:55;;;;;;;1.50;1.30;;;;;;;;;;4977463;28;20202;-73
2020/12/25 01:47:01;;;;;;;1.30;1.20;;;;;;;;;;4968390;28;20179;-73
2020/12/25 01:50:05;;;;;;;1.60;1.10;;;;;;;;;;4957182;28;20646;-73
2020/12/25 01:53:10;;;;;;;1.93;1.10;;;;;;;;;;4980136;28;20210;-73
2020/12/25 01:56:15;;;;;;;2.03;1.30;;;;;;;;;;4980746;28;20190;-73
2020/12/25 01:59:20;;;;;;;1.20;1.10;;;;;;;;;;4974144;28;20210;-73
2020/12/25 02:02:24;;;;;;;0.80;0.80;;;;;;;;;;4968497;28;20215;-73
2020/12/25 02:05:30;;;;;;;1.87;1.00;;;;;;;;;;4961088;29;20184;-73
2020/12/25 02:08:35;;;;;;;0.80;0.70;;;;;;;;;;4967019;28;20199;-73
2020/12/25 02:11:39;;;;;;;0.80;0.80;;;;;;;;;;4980438;28;20697;-73
2020/12/25 02:14:43;;;;;;;1.30;0.80;;;;;;;;;;4976243;28;20195;-73
2020/12/25 02:17:48;;;;;;;0.67;0.67;;;;;;;;;;4976713;28;20550;-73
2020/12/25 02:20:52;;;;;;;0.60;0.57;;;;;;;;;;4965419;28;20211;-73
2020/12/25 02:23:56;;;;;;;0.70;0.70;;;;;;;;;;4965093;28;20190;-73
2020/12/25 02:27:00;;;;;;;0.60;0.60;;;;;;;;;;4977132;28;20183;-73
2020/12/25 02:30:06;;;;;;;0.50;0.50;;;;;;;;;;4976600;28;20183;-73
2020/12/25 02:33:10;;;;;;;0.50;0.50;;;;;;;;;;4976991;28;20187;-73
2020/12/25 02:36:15;;;;;;;0.60;0.60;;;;;;;;;;4976535;28;20538;-73
2020/12/25 02:39:19;;;;;;;0.77;0.63;;;;;;;;;;4957521;29;20551;-73
2020/12/25 02:42:23;;;;;;;0.50;0.50;;;;;;;;;;4963242;28;20218;-73
2020/12/25 02:45:28;;;;;;;0.50;0.50;;;;;;;;;;4976623;28;21096;-73
2020/12/25 02:48:32;;;;;;;1.10;0.40;;;;;;;;;;4976264;28;21159;-73
2020/12/25 02:51:36;;;;;;;0.30;0.30;;;;;;;;;;4964547;28;20642;-72
2020/12/25 02:54:41;;;;;;;0.67;0.60;;;;;;;;;;4964676;28;20178;-73
2020/12/25 02:57:45;;;;;;;0.43;0.43;;;;;;;;;;4975443;28;20187;-73
2020/12/25 03:00:49;;;;;;;0.43;0.40;;;;;;;;;;4976175;28;20610;-73
2020/12/25 03:03:53;;;;;;;0.60;0.50;;;;;;;;;;4975808;28;20187;-73
2020/12/25 03:06:57;;;;;;;0.40;0.40;;;;;;;;;;4960811;28;20623;-73
2020/12/25 03:10:01;;;;;;;0.50;0.40;;;;;;;;;;4975024;28;20618;-73
2020/12/25 03:13:05;;;;;;;0.80;0.60;;;;;;;;;;4976233;28;20198;-72
2020/12/25 03:16:09;;;;;;;0.70;0.70;;;;;;;;;;4976204;28;20598;-73
2020/12/25 03:19:13;;;;;;;0.63;0.63;;;;;;;;;;4976662;28;20634;-73
2020/12/25 03:22:17;;;;;;;1.13;0.90;;;;;;;;;;4975519;28;20645;-73
2020/12/25 03:25:21;;;;;;;1.03;0.93;;;;;;;;;;4975588;28;20598;-73
2020/12/25 03:28:25;;;;;;;1.00;0.90;;;;;;;;;;4975266;28;20590;-73
2020/12/25 03:31:30;;;;;;;0.90;0.80;;;;;;;;;;4975608;28;20610;-73
2020/12/25 03:34:34;;;;;;;1.17;1.07;;;;;;;;;;4975774;28;20543;-73
2020/12/25 03:37:38;;;;;;;1.20;1.10;;;;;;;;;;4975467;28;20586;-73
2020/12/25 03:40:42;;;;;;;0.80;0.80;;;;;;;;;;4975237;28;20626;-73
2020/12/25 03:43:46;;;;;;;0.80;0.80;;;;;;;;;;4975412;28;20923;-73
2020/12/25 03:46:50;;;;;;;1.23;0.90;;;;;;;;;;4975905;28;20547;-73
2020/12/25 03:49:55;;;;;;;2.40;0.80;;;;;;;;;;4963955;28;20547;-74
2020/12/25 03:52:59;;;;;;;0.60;0.60;;;;;;;;;;4974974;28;20654;-73
2020/12/25 03:56:03;;;;;;;0.73;0.70;;;;;;;;;;4963054;28;20598;-74
2020/12/25 03:59:07;;;;;;;0.97;0.70;;;;;;;;;;4975353;28;20606;-74
2020/12/25 04:02:11;;;;;;;0.60;0.60;;;;;;;;;;4974561;28;20606;-74
2020/12/25 04:05:15;;;;;;;0.60;0.60;;;;;;;;;;4975479;28;20551;-74
2020/12/25 04:08:19;;;;;;;0.63;0.60;;;;;;;;;;4975041;28;20595;-74
2020/12/25 04:11:24;;;;;;;0.70;0.70;;;;;;;;;;4975298;28;20625;-74
2020/12/25 04:14:28;;;;;;;0.50;0.50;;;;;;;;;;4974722;28;20582;-74
2020/12/25 04:17:32;;;;;;;0.80;0.80;;;;;;;;;;4974660;28;20610;-75
2020/12/25 04:20:36;;;;;;;0.70;0.70;;;;;;;;;;4974799;28;20590;-75
2020/12/25 04:23:41;;;;;;;0.67;0.63;;;;;;;;;;4974698;28;20594;-75
2020/12/25 04:26:46;;;;;;;0.70;0.60;;;;;;;;;;4975086;28;20546;-75
2020/12/25 04:29:50;;;;;;;0.60;0.60;;;;;;;;;;4963335;28;20547;-75
2020/12/25 04:32:54;;;;;;;0.73;0.73;;;;;;;;;;4974322;28;20637;-76
2020/12/25 04:35:59;;;;;;;0.80;0.80;;;;;;;;;;4974530;28;20625;-76
2020/12/25 04:39:05;;;;;;;0.80;0.80;;;;;;;;;;4962781;28;20558;-76
2020/12/25 04:42:10;;;;;;;0.80;0.80;;;;;;;;;;4963923;28;20614;-76
2020/12/25 04:45:14;;;;;;;1.20;0.87;;;;;;;;;;4975580;28;21097;-77
2020/12/25 04:48:18;;;;;;;0.70;0.70;;;;;;;;;;4964112;28;20595;-78
2020/12/25 04:51:22;;;;;;;0.90;0.90;;;;;;;;;;4936483;29;21189;-77
2020/12/25 04:54:27;;;;;;;0.83;0.80;;;;;;;;;;4959886;29;20555;-78
2020/12/25 04:57:30;;;;;;;0.70;0.70;;;;;;;;;;4973585;28;20598;-78
2020/12/25 05:00:35;;;;;;;0.80;0.80;;;;;;;;;;4960223;28;20606;-79
2020/12/25 05:03:41;;;;;;;1.03;0.93;;;;;;;;;;4941123;29;20540;-79
2020/12/25 05:06:47;;;;;;;0.90;0.90;;;;;;;;;;4971265;28;20539;-80
2020/12/25 05:09:55;;;;;;;1.00;0.90;;;;;;;;;;4960128;28;20539;-79
2020/12/25 05:12:59;;;;;;;0.80;0.73;;;;;;;;;;4980562;28;20646;-80
2020/12/25 05:16:03;;;;;;;1.10;1.00;;;;;;;;;;4938893;29;20627;-80
2020/12/25 05:19:08;;;;;;;0.90;0.90;;;;;;;;;;4961570;29;20626;-82
2020/12/25 05:22:18;;;;;;;1.00;0.90;;;;;;;;;;4953661;29;20615;-82
2020/12/25 05:25:22;;;;;;;1.20;0.87;;;;;;;;;;4953330;28;20602;-83
2020/12/25 05:28:28;;;;;;;1.00;0.80;;;;;;;;;;4951839;28;20618;-83
2020/12/25 05:31:33;;;;;;;1.50;0.80;;;;;;;;;;4984683;28;20630;-81
2020/12/25 05:34:37;;;;;;;1.80;1.10;;;;;;;;;;4961949;28;20535;-82
2020/12/25 05:37:42;;;;;;;0.80;0.80;;;;;;;;;;4951531;28;20610;-82
2020/12/25 05:40:47;;;;;;;1.10;0.90;;;;;;;;;;4972838;28;20658;-81
2020/12/25 05:43:53;;;;;;;1.10;1.00;;;;;;;;;;4972979;28;20598;-83
2020/12/25 05:47:01;;;;;;;0.83;0.80;;;;;;;;;;4973910;28;20602;-81
2020/12/25 05:50:06;;;;;;;1.07;0.97;;;;;;;;;;4967971;28;20595;-81
2020/12/25 05:53:10;;;;;;;1.20;1.10;;;;;;;;;;4967141;28;20554;-83
2020/12/25 05:56:15;;;;;;;1.60;1.27;;;;;;;;;;4958804;29;21008;-80
2020/12/25 05:59:31;;;;;;;1.40;1.10;;;;;;;;;;4960238;29;20539;-80
2020/12/25 06:02:35;;;;;;;1.50;1.00;;;;;;;;;;4987449;28;20622;-81
2020/12/25 06:05:41;;;;;;;1.40;1.20;;;;;;;;;;4966791;28;20586;-81
2020/12/25 06:09:08;;;;;;;1.30;1.20;;;;;;;;;;4990135;28;20621;-81
2020/12/25 06:12:14;;;;;;;1.70;1.30;;;;;;;;;;4989213;28;20617;-80
2020/12/25 06:15:28;;;;;;;1.93;1.33;;;;;;;;;;4977847;28;20538;-81
2020/12/25 06:18:39;;;;;;;5.20;3.40;;;;;;;;;;4974328;28;20638;-80
2020/12/25 06:21:51;;;;;;;1.40;1.30;;;;;;;;;;4966177;28;20673;-79
2020/12/25 06:24:58;;;;;;;2.30;1.80;;;;;;;;;;4976651;28;20566;-82
2020/12/25 06:28:03;;;;;;;1.53;1.40;;;;;;;;;;4976171;28;20547;-81
2020/12/25 06:31:28;;;;;;;1.37;1.27;;;;;;;;;;4964645;28;20966;-80
2020/12/25 06:34:42;;;;;;;1.93;1.73;;;;;;;;;;4988393;28;20590;-83
2020/12/25 06:37:51;;;;;;;2.30;1.67;;;;;;;;;;4947971;29;20543;-81
2020/12/25 06:40:59;;;;;;;2.63;1.67;;;;;;;;;;4977536;28;21220;-80
2020/12/25 06:44:08;;;;;;;1.83;1.43;;;;;;;;;;4954256;28;20543;-83
2020/12/25 06:47:26;;;;;;;2.10;1.90;;;;;;;;;;4965348;28;20598;-82
2020/12/25 06:50:39;;;;;;;4.30;1.83;;;;;;;;;;4963765;28;20543;-81
2020/12/25 06:53:44;;;;;;;2.93;2.03;;;;;;;;;;4963235;28;20555;-83
2020/12/25 06:56:54;;;;;;;2.60;2.17;;;;;;;;;;4975993;28;20551;-80
2020/12/25 07:00:03;;;;;;;4.67;3.70;;;;;;;;;;4944227;28;20595;-80
2020/12/25 07:03:14;;;;;;;4.77;4.20;;;;;;;;;;4961745;28;20583;-82
2020/12/25 07:06:23;;;;;;;3.13;2.67;;;;;;;;;;4973280;28;20594;-81
2020/12/25 07:09:46;;;;;;;3.47;3.17;;;;;;;;;;4974197;28;20550;-81
2020/12/25 07:12:50;;;;;;;3.13;2.83;;;;;;;;;;4973379;28;20626;-82
2020/12/25 07:15:55;;;;;;;5.77;4.60;;;;;;;;;;4983431;28;20942;-79
2020/12/25 07:18:59;;;;;;;3.57;2.90;;;;;;;;;;4959541;28;21203;-81
2020/12/25 07:22:05;;;;;;;3.47;3.00;;;;;;;;;;4962844;28;20662;-82
2020/12/25 07:25:09;;;;;;;3.57;2.90;;;;;;;;;;4951275;28;20554;-79
2020/12/25 07:28:15;;;;;;;4.33;2.90;;;;;;;;;;4967839;28;20606;-79
2020/12/25 07:31:19;;;;;;;3.53;2.80;;;;;;;;;;4975889;28;20642;-79
2020/12/25 07:34:26;;;;;;;3.60;3.10;;;;;;;;;;4971050;28;20625;-80
2020/12/25 07:37:30;;;;;;;3.70;2.90;;;;;;;;;;4959011;28;20594;-78
2020/12/25 07:40:34;;;;;;;3.90;3.13;;;;;;;;;;4982174;28;20559;-80
2020/12/25 07:43:38;;;;;;;4.20;3.23;;;;;;;;;;4959705;28;20543;-82
2020/12/25 07:46:43;;;;;;;3.53;3.07;;;;;;;;;;4982275;28;20590;-78
2020/12/25 07:49:47;;;;;;;3.97;3.30;;;;;;;;;;4957901;28;20551;-80
2020/12/25 07:52:51;;;;;;;3.63;3.03;;;;;;;;;;4969208;28;21238;-78
2020/12/25 07:56:05;;;;;;;3.57;3.13;;;;;;;;;;4980821;28;20933;-78
2020/12/25 07:59:09;;;;;;;4.83;4.13;;;;;;;;;;4980457;28;21155;-78
2020/12/25 08:02:13;;;;;;;7.93;5.70;;;;;;;;;;4957772;28;20674;-77
2020/12/25 08:05:18;;;;;;;6.87;5.67;;;;;;;;;;4972022;28;20542;-77
2020/12/25 08:08:23;;;;;;;10.67;5.67;;;;;;;;;;4984577;28;20594;-77
2020/12/25 08:11:27;;;;;;;4.83;3.87;;;;;;;;;;4985694;28;20653;-77
2020/12/25 08:14:32;;;;;;;4.77;3.50;;;;;;;;;;4977406;28;20810;-77
2020/12/25 08:17:37;;;;;;;10.33;5.53;;;;;;;;;;4968940;28;20630;-77
2020/12/25 08:20:42;;;;;;;49.40;26.67;;;;;;;;;;4946010;28;20547;-78
2020/12/25 08:23:46;;;;;;;11.63;10.43;;;;;;;;;;4965130;28;20601;-77
2020/12/25 08:26:58;;;;;;;16.27;13.67;;;;;;;;;;4969876;28;20584;-76
2020/12/25 08:30:06;;;;;;;5.40;4.40;;;;;;;;;;4995868;28;20550;-76
2020/12/25 08:33:10;;;;;;;4.87;3.63;;;;;;;;;;4944933;29;20539;-75
2020/12/25 08:36:14;;;;;;;3.70;3.20;;;;;;;;;;4961445;28;21156;-76
2020/12/25 08:39:27;;;;;;;3.67;3.30;;;;;;;;;;4962860;28;21180;-76
2020/12/25 08:42:31;;;;;;;4.07;3.00;;;;;;;;;;4978687;28;20654;-76
2020/12/25 08:45:37;;;;;;;4.97;3.27;;;;;;;;;;4995646;28;20612;-77
2020/12/25 08:48:50;;;;;;;3.57;2.73;;;;;;;;;;4956846;28;20602;-75
2020/12/25 08:51:54;;;;;;;3.60;2.93;;;;;;;;;;4974691;28;20643;-76
2020/12/25 08:54:59;;;;;;;3.70;2.77;;;;;;;;;;4951707;28;20552;-75
2020/12/25 08:58:04;;;;;;;3.60;2.87;;;;;;;;;;4974351;28;20602;-75
2020/12/25 09:01:09;;;;;;;4.00;3.10;;;;;;;;;;4944519;28;20619;-75
2020/12/25 09:04:15;;;;;;;4.53;2.57;;;;;;;;;;4974146;28;20590;-75
2020/12/25 09:07:19;;;;;;;4.43;3.30;;;;;;;;;;4961984;28;20598;-74
2020/12/25 09:10:24;;;;;;;4.27;2.63;;;;;;;;;;4974278;28;20542;-75
2020/12/25 09:13:28;;;;;;;4.40;2.67;;;;;;;;;;4974635;28;20543;-75
2020/12/25 09:16:32;;;;;;;4.00;2.80;;;;;;;;;;4943042;29;20551;-75
2020/12/25 09:19:36;;;;;;;3.83;2.93;;;;;;;;;;4968692;28;20626;-75
2020/12/25 09:22:40;;;;;;;3.47;2.77;;;;;;;;;;4941661;28;20653;-75
2020/12/25 09:25:45;;;;;;;4.47;3.50;;;;;;;;;;4978003;28;20949;-74
2020/12/25 09:28:49;;;;;;;8.90;5.60;;;;;;;;;;4965660;28;20602;-74
2020/12/25 09:31:53;;;;;;;9.37;4.83;;;;;;;;;;4965902;28;20622;-75
2020/12/25 09:34:58;;;;;;;7.83;6.50;;;;;;;;;;4954923;28;20602;-74
2020/12/25 09:38:02;;;;;;;7.03;3.90;;;;;;;;;;4957784;29;20560;-74
2020/12/25 09:41:06;;;;;;;6.83;4.73;;;;;;;;;;4948901;28;20654;-73
2020/12/25 09:44:10;;;;;;;6.10;4.50;;;;;;;;;;4975320;28;20582;-75
2020/12/25 09:47:17;;;;;;;9.07;5.67;;;;;;;;;;4966367;28;20546;-75
2020/12/25 09:50:22;;;;;;;12.00;7.03;;;;;;;;;;4966103;28;20594;-75
2020/12/25 09:53:26;;;;;;;9.10;5.80;;;;;;;;;;4977413;28;20586;-75
2020/12/25 09:56:30;;;;;;;9.10;5.93;;;;;;;;;;4977596;28;20546;-74
2020/12/25 09:59:35;;;;;;;6.23;4.83;;;;;;;;;;4965749;28;21092;-74
2020/12/25 10:02:39;;;;;;;6.07;5.20;;;;;;;;;;4965414;28;20653;-76
2020/12/25 10:05:43;;;;;;;7.50;5.20;;;;;;;;;;4976722;28;20926;-74
2020/12/25 10:08:47;;;;;;;7.37;4.73;;;;;;;;;;4960942;28;20598;-74
2020/12/25 10:11:54;;;;;;;6.13;4.07;;;;;;;;;;4965093;28;20642;-73
2020/12/25 10:14:58;;;;;;;6.77;5.07;;;;;;;;;;4976872;28;20586;-73
2020/12/25 10:18:03;;;;;;;7.97;5.00;;;;;;;;;;4962822;28;20630;-75
2020/12/25 10:21:07;;;;;;;7.97;5.47;;;;;;;;;;4975432;28;20657;-74
2020/12/25 10:24:18;;;;;;;6.77;5.07;;;;;;;;;;4955036;28;20590;-74
2020/12/25 10:27:32;;;;;;;5.80;4.60;;;;;;;;;;4979881;23;20733;-76
2020/12/25 10:30:36;;;;;;;5.77;4.53;;;;;;;;;;5034866;28;20548;-75
2020/12/25 10:33:40;;;;;;;6.93;5.37;;;;;;;;;;5035035;28;20551;-75
2020/12/25 10:36:44;;;;;;;12.00;6.57;;;;;;;;;;5035871;28;20544;-75
2020/12/25 10:39:49;;;;;;;7.40;5.17;;;;;;;;;;5023465;28;21102;-75
2020/12/25 10:42:53;;;;;;;5.77;4.53;;;;;;;;;;5035318;28;20982;-75
2020/12/25 10:45:57;;;;;;;6.17;4.70;;;;;;;;;;5035481;28;20555;-75
2020/12/25 10:49:01;;;;;;;8.80;4.50;;;;;;;;;;5012244;28;20544;-75
2020/12/25 10:52:06;;;;;;;6.00;4.63;;;;;;;;;;5034393;28;20615;-75
2020/12/25 10:55:12;;;;;;;7.10;5.33;;;;;;;;;;5023067;28;20595;-75
2020/12/25 10:58:16;;;;;;;6.50;5.07;;;;;;;;;;5035174;28;20540;-75
2020/12/25 11:01:24;;;;;;;7.97;6.33;;;;;;;;;;5022879;28;20635;-75
2020/12/25 11:04:28;;;;;;;5.27;4.10;;;;;;;;;;5034212;28;20584;-75
2020/12/25 11:07:32;;;;;;;7.87;6.10;;;;;;;;;;5034981;28;20595;-75
2020/12/25 11:10:37;;;;;;;11.80;8.60;;;;;;;;;;5034910;28;20548;-75
2020/12/25 11:13:42;;;;;;;9.50;7.07;;;;;;;;;;5034588;28;20536;-75
2020/12/25 11:16:46;;;;;;;8.07;5.73;;;;;;;;;;5022982;28;20876;-75
2020/12/25 11:19:55;;;;;;;7.97;5.70;;;;;;;;;;5023172;28;21058;-75
2020/12/25 11:23:00;;;;;;;6.27;4.17;;;;;;;;;;5034035;28;21216;-75
2020/12/25 11:26:04;;;;;;;7.57;5.40;;;;;;;;;;5011469;28;20540;-75
2020/12/25 11:29:08;;;;;;;7.77;5.20;;;;;;;;;;5034525;28;20611;-75
2020/12/25 11:32:13;;;;;;;5.90;4.80;;;;;;;;;;5034551;28;20615;-75
2020/12/25 11:35:17;;;;;;;5.50;4.37;;;;;;;;;;5022568;28;20548;-75
2020/12/25 11:38:21;;;;;;;6.53;5.03;;;;;;;;;;5022532;28;20548;-75
2020/12/25 11:41:26;;;;;;;7.73;4.60;;;;;;;;;;5011077;28;20626;-74
2020/12/25 11:44:31;;;;;;;5.13;3.93;;;;;;;;;;5022376;28;20533;-74
2020/12/25 11:47:35;;;;;;;9.23;4.47;;;;;;;;;;5031680;28;20596;-74
2020/12/25 11:50:39;;;;;;;8.23;4.90;;;;;;;;;;5029124;28;20580;-74
2020/12/25 11:53:44;;;;;;;5.70;3.83;;;;;;;;;;5033303;28;20591;-72
2020/12/25 11:56:48;;;;;;;5.13;4.13;;;;;;;;;;5033783;28;20555;-72
2020/12/25 11:59:52;;;;;;;4.70;4.13;;;;;;;;;;5020696;28;20551;-73
2020/12/25 12:02:56;;;;;;;6.27;4.13;;;;;;;;;;5001855;28;20652;-73
2020/12/25 12:06:00;;;;;;;4.43;3.50;;;;;;;;;;5001955;28;20585;-73
2020/12/25 12:09:04;;;;;;;4.43;3.80;;;;;;;;;;5019554;28;20619;-73
2020/12/25 12:12:08;;;;;;;6.20;4.80;;;;;;;;;;5014571;28;20640;-73
2020/12/25 12:15:12;;;;;;;6.00;5.00;;;;;;;;;;5016608;28;20592;-72
2020/12/25 12:18:17;;;;;;;6.50;5.43;;;;;;;;;;5036990;28;20618;-72
2020/12/25 12:21:24;;;;;;;5.80;4.50;;;;;;;;;;5043771;28;20651;-73
2020/12/25 12:24:28;;;;;;;7.87;5.87;;;;;;;;;;5033577;28;20588;-72
2020/12/25 12:27:32;;;;;;;7.90;5.93;;;;;;;;;;5002976;28;20628;-72
2020/12/25 12:30:36;;;;;;;6.87;5.57;;;;;;;;;;5024007;28;20595;-72
2020/12/25 12:33:40;;;;;;;9.57;6.50;;;;;;;;;;5024555;28;20592;-72
2020/12/25 12:36:45;;;;;;;6.57;4.37;;;;;;;;;;5001485;28;20545;-72
2020/12/25 12:39:50;;;;;;;15.80;11.10;;;;;;;;;;5027070;28;20588;-72
2020/12/25 12:42:54;;;;;;;5.47;4.50;;;;;;;;;;5016427;28;20662;-72
2020/12/25 12:45:58;;;;;;;4.10;3.70;;;;;;;;;;5033281;28;20595;-72
2020/12/25 12:49:02;;;;;;;5.53;4.60;;;;;;;;;;5013331;28;20624;-72
2020/12/25 12:52:06;;;;;;;8.90;7.10;;;;;;;;;;5013375;28;20652;-72
2020/12/25 12:55:11;;;;;;;8.90;7.20;;;;;;;;;;5013360;28;20181;-71
2020/12/25 12:58:15;;;;;;;9.43;6.77;;;;;;;;;;5013070;28;20540;-71
2020/12/25 13:01:21;;;;;;;9.53;7.50;;;;;;;;;;5028620;28;20647;-71
2020/12/25 13:04:25;;;;;;;8.87;6.67;;;;;;;;;;5005756;28;20620;-72
2020/12/25 13:07:30;;;;;;;7.97;6.30;;;;;;;;;;5031554;28;20591;-72
2020/12/25 13:10:35;;;;;;;11.73;8.10;;;;;;;;;;5013032;28;20193;-72
2020/12/25 13:13:40;;;;;;;52.60;27.63;;;;;;;;;;5017877;28;20592;-72
2020/12/25 13:16:44;;;;;;;39.13;22.33;;;;;;;;;;5001961;28;20600;-72
2020/12/25 13:19:48;;;;;;;37.53;21.20;;;;;;;;;;5019215;28;20634;-72
2020/12/25 13:22:52;;;;;;;34.43;20.97;;;;;;;;;;5032846;28;20658;-72
2020/12/25 13:25:56;;;;;;;32.43;20.23;;;;;;;;;;5032660;28;20563;-71
2020/12/25 13:29:01;;;;;;;20.80;13.43;;;;;;;;;;5013098;28;20212;-71
2020/12/25 13:32:06;;;;;;;7.27;5.53;;;;;;;;;;5031657;28;20641;-72
2020/12/25 13:35:10;;;;;;;6.43;5.53;;;;;;;;;;5021406;28;20182;-72
2020/12/25 13:38:14;;;;;;;6.83;6.10;;;;;;;;;;5013363;28;20537;-72
2020/12/25 13:41:21;;;;;;;7.23;5.90;;;;;;;;;;5019726;28;20220;-72
2020/12/25 13:44:25;;;;;;;12.40;11.10;;;;;;;;;;5018145;28;20222;-72
2020/12/25 13:47:29;;;;;;;8.23;6.43;;;;;;;;;;5001991;28;20664;-72
2020/12/25 13:50:33;;;;;;;11.13;9.93;;;;;;;;;;5012531;28;20928;-72
2020/12/25 13:53:37;;;;;;;12.27;7.63;;;;;;;;;;5031986;28;20587;-72
2020/12/25 13:56:42;;;;;;;12.03;7.27;;;;;;;;;;5020564;28;20888;-72
2020/12/25 13:59:46;;;;;;;14.57;9.90;;;;;;;;;;5011399;28;20571;-72
2020/12/25 14:02:50;;;;;;;11.97;8.27;;;;;;;;;;5049590;28;20649;-72
2020/12/25 14:05:55;;;;;;;8.60;5.80;;;;;;;;;;5032624;28;20185;-72
2020/12/25 14:08:59;;;;;;;8.70;4.77;;;;;;;;;;5030862;28;20584;-72
2020/12/25 14:12:03;;;;;;;5.90;4.10;;;;;;;;;;5035901;28;20627;-72
2020/12/25 14:15:08;;;;;;;4.60;3.80;;;;;;;;;;5016191;28;21145;-72
2020/12/25 14:18:14;;;;;;;3.20;2.90;;;;;;;;;;5004256;28;20544;-72
2020/12/25 14:21:18;;;;;;;5.47;4.10;;;;;;;;;;5016726;28;20643;-72
2020/12/25 14:24:22;;;;;;;4.50;3.10;;;;;;;;;;5029439;28;20632;-72
2020/12/25 14:27:26;;;;;;;4.07;3.60;;;;;;;;;;5038923;28;21156;-72
2020/12/25 14:30:32;;;;;;;7.70;5.13;;;;;;;;;;5055419;28;21210;-72
2020/12/25 14:33:36;;;;;;;3.90;3.30;;;;;;;;;;5055709;28;20535;-72
2020/12/25 14:36:41;;;;;;;3.27;2.97;;;;;;;;;;5019328;28;20579;-72
2020/12/25 14:39:45;;;;;;;2.37;2.17;;;;;;;;;;5007761;28;20596;-72
2020/12/25 14:42:49;;;;;;;2.27;1.97;;;;;;;;;;5003412;28;20620;-72
2020/12/25 14:45:55;;;;;;;3.80;2.87;;;;;;;;;;5015475;28;20553;-72
2020/12/25 14:48:59;;;;;;;7.90;4.80;;;;;;;;;;5035724;28;20548;-72
2020/12/25 14:52:03;;;;;;;4.57;3.17;;;;;;;;;;5022964;28;20626;-72
2020/12/25 14:55:07;;;;;;;29.80;11.90;;;;;;;;;;5035226;28;20560;-72
2020/12/25 14:58:11;;;;;;;11.87;5.67;;;;;;;;;;5016197;28;20597;-72
2020/12/25 15:01:18;;;;;;;2.97;2.33;;;;;;;;;;5016993;28;20651;-72
2020/12/25 15:04:23;;;;;;;4.33;2.40;;;;;;;;;;5003302;28;20596;-72
2020/12/25 15:07:28;;;;;;;2.90;2.23;;;;;;;;;;5027354;28;20591;-72
2020/12/25 15:10:32;;;;;;;6.00;3.70;;;;;;;;;;5034863;28;20599;-72
2020/12/25 15:13:37;;;;;;;74.33;31.07;;;;;;;;;;5017673;28;20588;-72
2020/12/25 15:16:41;;;;;;;21.47;13.40;;;;;;;;;;5003018;28;20607;-72
2020/12/25 15:19:45;;;;;;;5.73;2.90;;;;;;;;;;5015338;28;20549;-72
2020/12/25 15:22:49;;;;;;;3.43;2.90;;;;;;;;;;5014886;28;20620;-72
2020/12/25 15:25:53;;;;;;;2.93;2.30;;;;;;;;;;5002627;28;20601;-72
2020/12/25 15:28:58;;;;;;;5.07;4.17;;;;;;;;;;5014606;28;20612;-72
2020/12/25 15:32:02;;;;;;;5.57;4.33;;;;;;;;;;5022324;28;20658;-72
2020/12/25 15:35:06;;;;;;;8.37;6.60;;;;;;;;;;5014555;28;20537;-72
2020/12/25 15:38:10;;;;;;;4.93;3.93;;;;;;;;;;5027097;28;21137;-71
2020/12/25 15:41:14;;;;;;;5.20;4.67;;;;;;;;;;5014591;28;21220;-71
2020/12/25 15:44:18;;;;;;;4.10;3.70;;;;;;;;;;5002835;28;20588;-72
2020/12/25 15:47:22;;;;;;;3.07;2.30;;;;;;;;;;5014911;28;20873;-72
2020/12/25 15:50:27;;;;;;;2.43;1.83;;;;;;;;;;5002720;28;20596;-71
2020/12/25 15:53:31;;;;;;;1.93;1.47;;;;;;;;;;5029938;28;20619;-71
2020/12/25 15:56:35;;;;;;;3.93;2.60;;;;;;;;;;5034319;28;20598;-71
2020/12/25 15:59:40;;;;;;;4.00;2.40;;;;;;;;;;5015693;28;20588;-71
2020/12/25 16:02:46;;;;;;;3.40;2.40;;;;;;;;;;5002078;28;20647;-71
2020/12/25 16:05:50;;;;;;;6.23;5.20;;;;;;;;;;5002449;28;20529;-72
2020/12/25 16:08:54;;;;;;;3.80;3.47;;;;;;;;;;5025710;28;20615;-72
2020/12/25 16:11:58;;;;;;;4.27;2.10;;;;;;;;;;5019862;28;20651;-71
2020/12/25 16:15:09;;;;;;;3.30;1.80;;;;;;;;;;5033774;28;21085;-71
2020/12/25 16:18:13;;;;;;;2.13;1.33;;;;;;;;;;5021702;28;20544;-71
2020/12/25 16:21:19;;;;;;;2.07;1.27;;;;;;;;;;5021575;28;20643;-71
2020/12/25 16:24:23;;;;;;;2.43;1.70;;;;;;;;;;5033587;28;20635;-71
2020/12/25 16:27:27;;;;;;;2.47;1.43;;;;;;;;;;5019980;28;20614;-71
2020/12/25 16:30:32;;;;;;;2.43;1.63;;;;;;;;;;5001583;28;21099;-71
2020/12/25 16:33:36;;;;;;;2.93;1.80;;;;;;;;;;5011288;28;20583;-71
2020/12/25 16:36:40;;;;;;;1.60;1.27;;;;;;;;;;5008469;28;20588;-71
2020/12/25 16:39:44;;;;;;;1.63;1.33;;;;;;;;;;5013606;28;21119;-71
2020/12/25 16:42:48;;;;;;;2.17;1.50;;;;;;;;;;5013413;28;20616;-71
2020/12/25 16:45:53;;;;;;;1.20;1.10;;;;;;;;;;5013646;28;20545;-71
2020/12/25 16:48:57;;;;;;;1.53;1.10;;;;;;;;;;5031545;28;20580;-71
2020/12/25 16:52:01;;;;;;;1.37;1.20;;;;;;;;;;5033450;28;20619;-71
2020/12/25 16:55:05;;;;;;;6.77;4.43;;;;;;;;;;5032877;28;20579;-71
2020/12/25 16:58:10;;;;;;;5.50;3.73;;;;;;;;;;5032384;28;20927;-71
2020/12/25 17:01:24;;;;;;;3.30;2.20;;;;;;;;;;5032573;28;20651;-72
2020/12/25 17:04:28;;;;;;;16.93;8.10;;;;;;;;;;5020760;28;20603;-71
2020/12/25 17:07:32;;;;;;;4.93;3.30;;;;;;;;;;5014542;28;20580;-71
2020/12/25 17:10:36;;;;;;;6.67;1.80;;;;;;;;;;4990103;28;20545;-72
2020/12/25 17:13:42;;;;;;;2.97;2.17;;;;;;;;;;5013289;28;20545;-71
2020/12/25 17:16:47;;;;;;;6.03;3.60;;;;;;;;;;5012453;28;20592;-72
2020/12/25 17:19:51;;;;;;;4.17;2.10;;;;;;;;;;5020397;28;20595;-71
2020/12/25 17:22:55;;;;;;;1.77;1.30;;;;;;;;;;5020754;28;20622;-71
2020/12/25 17:25:59;;;;;;;2.23;1.60;;;;;;;;;;5024874;28;20585;-72
2020/12/25 17:29:04;;;;;;;2.67;1.60;;;;;;;;;;5032658;28;20607;-72
2020/12/25 17:32:07;;;;;;;2.17;1.77;;;;;;;;;;5009806;28;20618;-72
2020/12/25 17:35:11;;;;;;;2.57;1.97;;;;;;;;;;5020882;28;20540;-72
2020/12/25 17:38:16;;;;;;;1.73;1.20;;;;;;;;;;4989735;28;21103;-72
2020/12/25 17:41:20;;;;;;;1.87;1.43;;;;;;;;;;5012798;28;20643;-71
2020/12/25 17:44:24;;;;;;;7.67;4.83;;;;;;;;;;5023620;28;20627;-72
2020/12/25 17:47:28;;;;;;;4.37;1.40;;;;;;;;;;5007453;28;20592;-72
2020/12/25 17:50:33;;;;;;;1.37;0.90;;;;;;;;;;5016855;28;20544;-71
2020/12/25 17:53:38;;;;;;;2.00;1.20;;;;;;;;;;5004695;28;20561;-71
2020/12/25 17:56:43;;;;;;;3.37;2.10;;;;;;;;;;5015002;28;20587;-71
2020/12/25 17:59:48;;;;;;;1.77;1.50;;;;;;;;;;5035854;28;20591;-71
2020/12/25 18:02:52;;;;;;;4.17;2.43;;;;;;;;;;5030687;28;20640;-71
2020/12/25 18:05:56;;;;;;;5.30;4.80;;;;;;;;;;5019730;28;20627;-72
2020/12/25 18:09:00;;;;;;;2.40;2.17;;;;;;;;;;5026053;28;20588;-72
2020/12/25 18:12:04;;;;;;;3.80;1.37;;;;;;;;;;5034511;28;20643;-72
2020/12/25 18:15:08;;;;;;;2.00;1.40;;;;;;;;;;5018765;28;20619;-72
2020/12/25 18:18:12;;;;;;;2.70;2.17;;;;;;;;;;5022115;28;20930;-73
2020/12/25 18:21:17;;;;;;;2.13;1.23;;;;;;;;;;5055145;28;20982;-71
2020/12/25 18:24:21;;;;;;;3.07;1.23;;;;;;;;;;5005060;28;20624;-71
2020/12/25 18:27:28;;;;;;;1.77;1.40;;;;;;;;;;5003675;28;20952;-72